Time;durP1;ratioP1;P1;durP2;ratioP2;P2;SDS_P1;SDS_P2;PMS_P1;PMS_P2;Temp;Humidity;BMP_temperature;BMP_pressure;BME280_temperature;BME280_humidity;BME280_pressure;Samples;Min_cycle;Max_cycle;Signal;HPM_P1;HPM_P2
2024/04/27 00:00:42;;;;;;;;;;;9.40;99.90;;;;;;5322653;26;19930;-79
2024/04/27 00:03:07;;;;;;;;;;;9.50;99.90;;;;;;5343316;26;19937;-79
2024/04/27 00:05:33;;;;;;;;;;;9.50;99.90;;;;;;5321193;26;20504;-80
2024/04/27 00:07:58;;;;;;;;;;;9.40;99.90;;;;;;5366255;26;20563;-79
2024/04/27 00:10:25;;;;;;;;;;;9.40;99.90;;;;;;5331404;26;19934;-80
2024/04/27 00:12:54;;;;;;;;;;;9.40;99.90;;;;;;5340085;26;19930;-80
2024/04/27 00:15:21;;;;;;;;;;;9.40;99.90;;;;;;5314840;26;19942;-79
2024/04/27 00:17:48;;;;;;;;;;;9.40;99.90;;;;;;5312917;26;19930;-79
2024/04/27 00:20:14;;;;;;;;;;;9.40;99.90;;;;;;5308986;27;19942;-81
2024/04/27 00:22:40;;;;;;;;;;;9.40;99.90;;;;;;5308275;27;19931;-79
2024/04/27 00:25:07;;;;;;;;;;;9.40;99.90;;;;;;5319256;26;19930;-79
2024/04/27 00:27:34;;;;;;;;;;;9.40;99.90;;;;;;5313882;26;19938;-79
2024/04/27 00:30:00;;;;;;;;;;;9.30;99.90;;;;;;5352203;26;19930;-79
2024/04/27 00:32:26;;;;;;;;;;;9.30;99.90;;;;;;5281107;26;19937;-79
2024/04/27 00:34:52;;;;;;;;;;;9.30;99.90;;;;;;5366688;26;19929;-80
2024/04/27 00:37:17;;;;;;;;;;;9.30;99.90;;;;;;5344038;26;19938;-80
2024/04/27 00:39:43;;;;;;;;;;;9.30;99.90;;;;;;5321962;26;19997;-80
2024/04/27 00:42:10;;;;;;;;;;;9.30;99.90;;;;;;5343664;26;19941;-80
2024/04/27 00:44:35;;;;;;;;;;;9.30;99.90;;;;;;5331653;26;19995;-79
2024/04/27 00:47:01;;;;;;;;;;;9.30;99.90;;;;;;5303930;26;20572;-79
2024/04/27 00:49:26;;;;;;;;;;;9.30;99.90;;;;;;5323335;26;20634;-79
2024/04/27 00:51:57;;;;;;;;;;;9.30;99.90;;;;;;5323594;26;20658;-81
2024/04/27 00:54:22;;;;;;;;;;;9.30;99.90;;;;;;5314518;26;19942;-80
2024/04/27 00:56:49;;;;;;;;;;;9.30;99.90;;;;;;5305148;26;19996;-80
2024/04/27 00:59:15;;;;;;;;;;;9.30;99.90;;;;;;5362827;26;19930;-80
2024/04/27 01:01:40;;;;;;;;;;;9.30;99.90;;;;;;5324458;26;19929;-79
2024/04/27 01:04:07;;;;;;;;;;;9.20;99.90;;;;;;5330849;26;19937;-80
2024/04/27 01:06:34;;;;;;;;;;;9.30;99.90;;;;;;5373609;26;19965;-80
2024/04/27 01:09:03;;;;;;;;;;;9.20;99.90;;;;;;5316688;26;20420;-81
2024/04/27 01:11:32;;;;;;;;;;;9.20;99.90;;;;;;5358507;26;19983;-80
2024/04/27 01:13:58;;;;;;;;;;;9.10;99.90;;;;;;5334609;26;19940;-80
2024/04/27 01:16:25;;;;;;;;;;;9.10;99.90;;;;;;5307390;26;20636;-81
2024/04/27 01:18:54;;;;;;;;;;;9.10;99.90;;;;;;5320739;26;20381;-80
2024/04/27 01:21:22;;;;;;;;;;;9.00;99.90;;;;;;5348154;26;19936;-81
2024/04/27 01:23:48;;;;;;;;;;;9.00;99.90;;;;;;5319417;26;19937;-79
2024/04/27 01:26:14;;;;;;;;;;;9.00;99.90;;;;;;5335344;26;19957;-81
2024/04/27 01:28:43;;;;;;;;;;;9.00;99.90;;;;;;5379742;26;20261;-80
2024/04/27 01:31:10;;;;;;;;;;;9.00;99.90;;;;;;5351310;26;19936;-81
2024/04/27 01:33:37;;;;;;;;;;;8.90;99.90;;;;;;5312271;26;19941;-81
2024/04/27 01:36:05;;;;;;;;;;;8.90;99.90;;;;;;5363802;26;20014;-80
2024/04/27 01:38:33;;;;;;;;;;;8.90;99.90;;;;;;5300245;26;19929;-79
2024/04/27 01:40:58;;;;;;;;;;;8.90;99.90;;;;;;5320889;26;19930;-79
2024/04/27 01:43:24;;;;;;;;;;;8.90;99.90;;;;;;5315814;26;20278;-80
2024/04/27 01:45:50;;;;;;;;;;;8.90;99.90;;;;;;5335111;26;20353;-79
2024/04/27 01:48:16;;;;;;;;;;;8.80;99.90;;;;;;5348822;26;19979;-79
2024/04/27 01:50:43;;;;;;;;;;;8.80;99.90;;;;;;5378721;26;20721;-79
2024/04/27 01:53:10;;;;;;;;;;;8.80;99.90;;;;;;5320572;26;19929;-79
2024/04/27 01:55:37;;;;;;;;;;;8.80;99.90;;;;;;5285953;26;19940;-79
2024/04/27 01:58:02;;;;;;;;;;;8.80;99.90;;;;;;5314588;26;20661;-79
2024/04/27 02:00:28;;;;;;;;;;;8.80;99.90;;;;;;5346428;26;20057;-79
2024/04/27 02:02:55;;;;;;;;;;;8.80;99.90;;;;;;5290502;26;19930;-79
2024/04/27 02:05:20;;;;;;;;;;;8.80;99.90;;;;;;5380653;26;19932;-79
2024/04/27 02:07:46;;;;;;;;;;;8.80;99.90;;;;;;5342652;26;19937;-80
2024/04/27 02:10:13;;;;;;;;;;;8.70;99.90;;;;;;5331822;26;20278;-78
2024/04/27 02:12:42;;;;;;;;;;;8.70;99.90;;;;;;5335917;26;20281;-78
2024/04/27 02:15:17;;;;;;;;;;;8.60;99.90;;;;;;5375001;26;19940;-78
2024/04/27 02:20:41;;;;;;;;;;;8.70;99.90;;;;;;5353432;26;20657;-78
2024/04/27 02:23:07;;;;;;;;;;;8.60;99.90;;;;;;5321476;26;19991;-78
2024/04/27 02:25:38;;;;;;;;;;;8.60;99.90;;;;;;5328310;26;20374;-78
2024/04/27 02:28:14;;;;;;;;;;;;;;;;;;;;;
2024/04/27 02:30:43;;;;;;;;;;;8.60;99.90;;;;;;5377368;26;19929;-78
2024/04/27 02:33:18;;;;;;;;;;;8.60;99.90;;;;;;5315683;26;19931;-77
2024/04/27 02:35:45;;;;;;;;;;;8.40;99.90;;;;;;5354556;26;19928;-78
2024/04/27 02:38:22;;;;;;;;;;;8.30;99.90;;;;;;5318789;26;19936;-78
2024/04/27 02:40:48;;;;;;;;;;;8.30;99.90;;;;;;5367894;26;20258;-78
2024/04/27 02:43:25;;;;;;;;;;;8.30;99.90;;;;;;5313491;26;19959;-78
2024/04/27 02:45:59;;;;;;;;;;;8.20;99.90;;;;;;5355243;26;19929;-79
2024/04/27 02:48:37;;;;;;;;;;;8.20;99.90;;;;;;5355009;26;20234;-78
2024/04/27 02:53:57;;;;;;;;;;;8.20;99.90;;;;;;5386802;26;19962;-77
2024/04/27 02:56:23;;;;;;;;;;;8.10;99.90;;;;;;5348916;26;20242;-79
2024/04/27 02:58:54;;;;;;;;;;;7.90;99.90;;;;;;5324813;26;19930;-79
2024/04/27 03:01:23;;;;;;;;;;;7.90;99.90;;;;;;5343651;26;19995;-78
2024/04/27 03:03:56;;;;;;;;;;;8.00;99.90;;;;;;5379379;26;19929;-78
2024/04/27 03:06:27;;;;;;;;;;;7.80;99.90;;;;;;5285336;26;19938;-78
2024/04/27 03:08:57;;;;;;;;;;;7.90;99.90;;;;;;5328645;26;19933;-78
2024/04/27 03:11:33;;;;;;;;;;;7.80;99.90;;;;;;5352203;26;20346;-78
2024/04/27 03:14:20;;;;;;;;;;;7.60;99.90;;;;;;5325949;26;19938;-78
2024/04/27 03:16:51;;;;;;;;;;;7.70;99.90;;;;;;5347165;26;20357;-78
2024/04/27 03:19:20;;;;;;;;;;;7.60;99.90;;;;;;5331501;26;20382;-78
2024/04/27 03:21:52;;;;;;;;;;;7.70;99.90;;;;;;5382321;26;20342;-78
2024/04/27 03:24:25;;;;;;;;;;;7.70;99.90;;;;;;5310702;26;19942;-78
2024/04/27 03:26:53;;;;;;;;;;;7.70;99.90;;;;;;5314251;26;19938;-78
2024/04/27 03:29:29;;;;;;;;;;;7.70;99.90;;;;;;5384506;26;20341;-78
2024/04/27 03:31:59;;;;;;;;;;;7.70;99.90;;;;;;5324313;26;19981;-78
2024/04/27 03:34:25;;;;;;;;;;;7.50;99.90;;;;;;5369553;26;20000;-78
2024/04/27 03:36:51;;;;;;;;;;;7.50;99.90;;;;;;5351780;26;20346;-78
2024/04/27 03:39:22;;;;;;;;;;;7.50;99.90;;;;;;5318416;26;19997;-79
2024/04/27 03:41:51;;;;;;;;;;;7.50;99.90;;;;;;5314323;26;19949;-78
2024/04/27 03:44:42;;;;;;;;;;;7.50;99.90;;;;;;5327393;26;19930;-78
2024/04/27 03:47:10;;;;;;;;;;;7.40;99.90;;;;;;5346915;26;19936;-78
2024/04/27 03:49:40;;;;;;;;;;;7.40;99.90;;;;;;5352044;26;19930;-79
2024/04/27 03:52:13;;;;;;;;;;;7.50;99.90;;;;;;5318000;26;19934;-79
2024/04/27 03:54:41;;;;;;;;;;;7.40;99.90;;;;;;5318595;26;20368;-78
2024/04/27 03:57:27;;;;;;;;;;;7.40;99.90;;;;;;5366202;26;20342;-78
2024/04/27 03:59:56;;;;;;;;;;;7.30;99.90;;;;;;5329249;26;19930;-78
2024/04/27 04:02:23;;;;;;;;;;;7.30;99.90;;;;;;5312841;27;20336;-78
2024/04/27 04:04:49;;;;;;;;;;;7.20;99.90;;;;;;5340533;26;19942;-78
2024/04/27 04:07:21;;;;;;;;;;;7.20;99.90;;;;;;5293779;26;19930;-78
2024/04/27 04:09:50;;;;;;;;;;;7.30;99.90;;;;;;5312873;26;20277;-79
2024/04/27 04:12:17;;;;;;;;;;;7.30;99.90;;;;;;5339972;26;19937;-78
2024/04/27 04:15:08;;;;;;;;;;;7.30;99.90;;;;;;5276562;27;20331;-79
2024/04/27 04:17:35;;;;;;;;;;;7.40;99.90;;;;;;5214151;27;19944;-79
2024/04/27 04:20:27;;;;;;;;;;;7.20;99.90;;;;;;5210263;27;20257;-79
2024/04/27 04:23:00;;;;;;;;;;;7.10;99.90;;;;;;5262265;27;19931;-78
2024/04/27 04:25:28;;;;;;;;;;;7.10;99.90;;;;;;5339107;26;19938;-78
2024/04/27 04:27:58;;;;;;;;;;;7.00;99.90;;;;;;5347271;26;19930;-78
2024/04/27 04:30:34;;;;;;;;;;;;;;;;;;;;;
2024/04/27 04:33:10;;;;;;;;;;;7.00;99.90;;;;;;5313040;26;19931;-79
2024/04/27 04:36:00;;;;;;;;;;;6.90;99.90;;;;;;5283499;26;19939;-79
2024/04/27 04:38:46;;;;;;;;;;;6.90;99.90;;;;;;5305032;27;19937;-79
2024/04/27 04:41:17;;;;;;;;;;;6.80;99.90;;;;;;5322886;26;19937;-79
2024/04/27 04:43:48;;;;;;;;;;;7.00;99.90;;;;;;5295017;26;20338;-78
2024/04/27 04:46:16;;;;;;;;;;;7.00;99.90;;;;;;5306137;26;19930;-78
2024/04/27 04:48:43;;;;;;;;;;;6.90;99.90;;;;;;5311168;27;19954;-78
2024/04/27 04:51:13;;;;;;;;;;;7.00;99.90;;;;;;5233510;27;20024;-78
2024/04/27 04:53:53;;;;;;;;;;;7.00;99.90;;;;;;5330257;26;19930;-78
2024/04/27 04:56:27;;;;;;;;;;;6.90;99.90;;;;;;5250315;27;19935;-78
2024/04/27 04:58:56;;;;;;;;;;;6.90;99.90;;;;;;5277996;27;19930;-78
2024/04/27 05:01:22;;;;;;;;;;;7.00;99.90;;;;;;5373297;26;19953;-78
2024/04/27 05:03:48;;;;;;;;;;;6.90;99.90;;;;;;5311256;27;19998;-78
2024/04/27 05:06:21;;;;;;;;;;;7.10;99.90;;;;;;5354017;26;20187;-78
2024/04/27 05:08:46;;;;;;;;;;;7.10;99.90;;;;;;5365508;26;19937;-78
2024/04/27 05:11:25;;;;;;;;;;;7.10;99.90;;;;;;5311353;27;20323;-78
2024/04/27 05:13:55;;;;;;;;;;;7.20;99.90;;;;;;5287873;26;19942;-78
2024/04/27 05:16:25;;;;;;;;;;;7.30;99.90;;;;;;5326602;26;19930;-78
2024/04/27 05:18:53;;;;;;;;;;;7.20;99.90;;;;;;5316556;26;19931;-79
2024/04/27 05:21:41;;;;;;;;;;;7.20;99.90;;;;;;5311986;26;19938;-78
2024/04/27 05:24:15;;;;;;;;;;;7.30;99.90;;;;;;5331429;26;19930;-78
2024/04/27 05:27:02;;;;;;;;;;;7.30;99.90;;;;;;5319133;26;19934;-78
2024/04/27 05:29:41;;;;;;;;;;;;;;;;;;;;;
2024/04/27 05:32:19;;;;;;;;;;;7.40;99.90;;;;;;5330587;26;19929;-78
2024/04/27 05:34:49;;;;;;;;;;;7.40;99.90;;;;;;5306604;26;19930;-78
2024/04/27 05:37:25;;;;;;;;;;;7.40;99.90;;;;;;5335972;26;20028;-79
2024/04/27 05:39:56;;;;;;;;;;;7.50;99.90;;;;;;5560578;21;20001;-79
2024/04/27 05:42:23;;;;;;;;;;;7.60;99.90;;;;;;5283270;27;19998;-79
2024/04/27 05:44:49;;;;;;;;;;;7.60;99.90;;;;;;5301828;26;19930;-79
2024/04/27 05:47:14;;;;;;;;;;;7.60;99.90;;;;;;5339607;26;19930;-80
2024/04/27 05:49:41;;;;;;;;;;;7.70;99.90;;;;;;5344231;26;20278;-80
2024/04/27 05:52:07;;;;;;;;;;;7.70;99.90;;;;;;5304350;27;19943;-79
2024/04/27 05:54:32;;;;;;;;;;;7.80;99.90;;;;;;5278003;27;19931;-79
2024/04/27 05:57:00;;;;;;;;;;;7.80;99.90;;;;;;5313905;26;20330;-79
2024/04/27 05:59:28;;;;;;;;;;;7.80;99.90;;;;;;5312170;27;19946;-79
2024/04/27 06:01:53;;;;;;;;;;;7.90;99.90;;;;;;5255620;27;19931;-79
2024/04/27 06:04:21;;;;;;;;;;;8.00;99.90;;;;;;5283218;27;20363;-80
2024/04/27 06:06:46;;;;;;;;;;;8.10;99.90;;;;;;5312925;27;20274;-80
2024/04/27 06:09:16;;;;;;;;;;;8.10;99.90;;;;;;5284343;27;19930;-80
2024/04/27 06:11:43;;;;;;;;;;;8.20;99.90;;;;;;5283536;26;19930;-80
2024/04/27 06:14:08;;;;;;;;;;;8.20;99.90;;;;;;5317590;26;19953;-79
2024/04/27 06:16:34;;;;;;;;;;;8.30;99.90;;;;;;5345878;26;19930;-79
2024/04/27 06:19:01;;;;;;;;;;;8.40;99.90;;;;;;5346205;26;20408;-80
2024/04/27 06:21:27;;;;;;;;;;;8.40;99.90;;;;;;5302389;27;19959;-80
2024/04/27 06:23:55;;;;;;;;;;;8.50;99.90;;;;;;5311535;27;19994;-80
2024/04/27 06:26:23;;;;;;;;;;;8.50;99.90;;;;;;5283033;27;20007;-80
2024/04/27 06:28:49;;;;;;;;;;;8.40;99.90;;;;;;5282874;27;20362;-80
2024/04/27 06:31:14;;;;;;;;;;;8.60;99.90;;;;;;5282398;27;20027;-80
2024/04/27 06:33:41;;;;;;;;;;;8.70;99.90;;;;;;5283032;27;19942;-80
2024/04/27 06:36:07;;;;;;;;;;;8.80;99.90;;;;;;5308395;26;19931;-80
2024/04/27 06:38:33;;;;;;;;;;;8.90;99.90;;;;;;5262090;27;19930;-80
2024/04/27 06:40:58;;;;;;;;;;;9.10;99.90;;;;;;5309685;27;19931;-80
2024/04/27 06:43:25;;;;;;;;;;;9.20;99.90;;;;;;5277350;27;19935;-79
2024/04/27 06:45:51;;;;;;;;;;;9.30;99.90;;;;;;5302612;27;20251;-79
2024/04/27 06:48:16;;;;;;;;;;;9.30;99.90;;;;;;5340389;26;19935;-79
2024/04/27 06:50:45;;;;;;;;;;;9.40;99.90;;;;;;5283826;27;20323;-79
2024/04/27 06:53:11;;;;;;;;;;;9.50;99.90;;;;;;5282847;27;19997;-79
2024/04/27 06:55:36;;;;;;;;;;;9.60;99.90;;;;;;5253245;27;19943;-79
2024/04/27 06:58:05;;;;;;;;;;;9.60;99.90;;;;;;5251861;27;19946;-80
2024/04/27 07:00:31;;;;;;;;;;;9.70;99.90;;;;;;5310522;27;19937;-79
2024/04/27 07:02:57;;;;;;;;;;;9.70;99.90;;;;;;5282775;27;20258;-80
2024/04/27 07:05:27;;;;;;;;;;;9.80;99.90;;;;;;5306687;27;20509;-80
2024/04/27 07:07:52;;;;;;;;;;;9.90;99.90;;;;;;5312041;27;19931;-80
2024/04/27 07:10:18;;;;;;;;;;;10.00;99.90;;;;;;5259332;27;20019;-81
2024/04/27 07:12:45;;;;;;;;;;;10.00;99.90;;;;;;5286812;27;19930;-81
2024/04/27 07:15:10;;;;;;;;;;;10.10;99.90;;;;;;5287770;27;19950;-80
2024/04/27 07:17:36;;;;;;;;;;;10.20;99.90;;;;;;5286322;27;20031;-80
2024/04/27 07:20:03;;;;;;;;;;;10.20;99.90;;;;;;5285398;27;19937;-81
2024/04/27 07:22:29;;;;;;;;;;;10.30;99.90;;;;;;5251229;27;19942;-80
2024/04/27 07:24:54;;;;;;;;;;;10.40;99.90;;;;;;5326506;26;19930;-81
2024/04/27 07:27:25;;;;;;;;;;;10.40;99.90;;;;;;5345570;26;19934;-80
2024/04/27 07:29:50;;;;;;;;;;;10.50;99.90;;;;;;5280531;27;19935;-80
2024/04/27 07:32:16;;;;;;;;;;;10.60;99.90;;;;;;5330720;26;19957;-81
2024/04/27 07:34:43;;;;;;;;;;;10.70;99.90;;;;;;5272899;26;19937;-80
2024/04/27 07:37:08;;;;;;;;;;;10.70;99.90;;;;;;5322987;26;19955;-81
2024/04/27 07:39:34;;;;;;;;;;;10.80;99.90;;;;;;5265132;27;20027;-79
2024/04/27 07:42:00;;;;;;;;;;;10.90;99.90;;;;;;5259948;27;20335;-80
2024/04/27 07:44:27;;;;;;;;;;;11.00;99.90;;;;;;5285837;27;19997;-80
2024/04/27 07:46:52;;;;;;;;;;;11.10;99.90;;;;;;5308672;26;20174;-79
2024/04/27 07:49:18;;;;;;;;;;;11.20;99.90;;;;;;5250751;27;19947;-78
2024/04/27 07:51:45;;;;;;;;;;;11.30;99.90;;;;;;5283604;27;19939;-80
2024/04/27 07:54:12;;;;;;;;;;;11.40;99.90;;;;;;5261069;27;19934;-80
2024/04/27 07:56:37;;;;;;;;;;;11.50;99.90;;;;;;5301636;27;19931;-81
2024/04/27 07:59:04;;;;;;;;;;;11.50;99.90;;;;;;5332733;26;19937;-80
2024/04/27 08:01:38;;;;;;;;;;;11.70;99.90;;;;;;5370994;26;19928;-80
2024/04/27 08:04:07;;;;;;;;;;;11.90;99.90;;;;;;5296516;26;19962;-80
2024/04/27 08:06:40;;;;;;;;;;;12.00;99.90;;;;;;5301366;26;19923;-80
2024/04/27 08:09:17;;;;;;;;;;;12.20;99.90;;;;;;5373144;26;19922;-81
2024/04/27 08:12:00;;;;;;;;;;;12.30;99.90;;;;;;5354097;26;19922;-81
2024/04/27 08:26:15;;;;;;;;;;;13.00;99.90;;;;;;5275587;26;19923;-81
2024/04/27 08:31:40;;;;;;;;;;;13.20;99.90;;;;;;5993691;21;19950;-79
2024/04/27 08:34:08;;;;;;;;;;;13.30;99.90;;;;;;5309015;26;19939;-80
2024/04/27 08:36:37;;;;;;;;;;;13.40;99.90;;;;;;5307459;27;19922;-80
2024/04/27 08:39:23;;;;;;;;;;;13.50;99.90;;;;;;5307511;27;19926;-81
2024/04/27 08:41:52;;;;;;;;;;;13.60;99.90;;;;;;5334522;26;19942;-80
2024/04/27 08:44:44;;;;;;;;;;;13.80;99.90;;;;;;5300030;27;19938;-80
2024/04/27 08:47:21;;;;;;;;;;;13.90;99.90;;;;;;5327625;27;19997;-81
2024/04/27 08:49:54;;;;;;;;;;;14.00;99.90;;;;;;5336315;26;19923;-81
2024/04/27 08:57:41;;;;;;;;;;;14.30;99.90;;;;;;5412122;26;19968;-80
2024/04/27 09:00:06;;;;;;;;;;;14.40;99.90;;;;;;5350696;26;19930;-80
2024/04/27 09:02:33;;;;;;;;;;;14.50;99.90;;;;;;5320230;26;19922;-80
2024/04/27 09:05:01;;;;;;;;;;;14.60;99.90;;;;;;5429402;26;19933;-80
2024/04/27 09:07:27;;;;;;;;;;;14.60;99.90;;;;;;5383683;26;19928;-80
2024/04/27 09:09:58;;;;;;;;;;;14.60;99.90;;;;;;5354853;26;19921;-80
2024/04/27 09:12:25;;;;;;;;;;;14.80;99.90;;;;;;5412527;26;19927;-80
2024/04/27 09:15:43;;;;;;;;;;;14.90;99.90;;;;;;5380186;26;19922;-80
2024/04/27 09:19:06;;;;;;;;;;;14.90;99.90;;;;;;5343478;26;19929;-80
2024/04/27 09:22:04;;;;;;;;;;;15.00;99.90;;;;;;5273169;27;19931;-79
2024/04/27 09:24:31;;;;;;;;;;;15.00;99.90;;;;;;5260211;27;19950;-79
2024/04/27 09:27:18;;;;;;;;;;;15.20;99.90;;;;;;5305663;26;19985;-80
2024/04/27 09:29:54;;;;;;;;;;;15.40;99.90;;;;;;5319950;26;19949;-80
2024/04/27 09:32:23;;;;;;;;;;;15.40;99.90;;;;;;5375043;26;19936;-81
2024/04/27 09:34:50;;;;;;;;;;;15.40;99.90;;;;;;5319693;26;19933;-80
2024/04/27 09:37:54;;;;;;;;;;;15.40;99.90;;;;;;5317427;26;19922;-80
2024/04/27 09:45:36;;;;;;;;;;;15.80;99.90;;;;;;5369044;26;19926;-83
2024/04/27 09:48:09;;;;;;;;;;;15.80;99.90;;;;;;5343304;26;19930;-82
2024/04/27 09:50:41;;;;;;;;;;;15.90;99.90;;;;;;5332017;26;19946;-82
2024/04/27 09:53:11;;;;;;;;;;;15.90;99.90;;;;;;5343959;26;19937;-81
2024/04/27 09:55:38;;;;;;;;;;;16.10;99.90;;;;;;5312813;26;19949;-81
2024/04/27 09:58:07;;;;;;;;;;;16.20;99.90;;;;;;5314442;26;19929;-82
2024/04/27 10:00:38;;;;;;;;;;;16.30;99.90;;;;;;5285956;26;19934;-84
2024/04/27 10:03:04;;;;;;;;;;;16.30;99.90;;;;;;5314612;26;19972;-81
2024/04/27 10:05:31;;;;;;;;;;;16.60;99.90;;;;;;5313876;26;19934;-80
2024/04/27 10:07:57;;;;;;;;;;;16.70;99.90;;;;;;5313685;26;19948;-82
2024/04/27 10:10:23;;;;;;;;;;;16.80;99.90;;;;;;5278274;26;19933;-81
2024/04/27 10:13:18;;;;;;;;;;;16.90;99.90;;;;;;5337776;26;19930;-81
2024/04/27 10:15:45;;;;;;;;;;;17.00;99.90;;;;;;5345071;26;19922;-79
2024/04/27 10:18:21;;;;;;;;;;;17.10;99.90;;;;;;5341876;26;19938;-80
2024/04/27 10:20:57;;;;;;;;;;;17.20;99.90;;;;;;5281677;26;19937;-81
2024/04/27 10:23:26;;;;;;;;;;;17.30;99.90;;;;;;5270148;26;19996;-81
2024/04/27 10:25:52;;;;;;;;;;;17.20;99.90;;;;;;5296484;27;19930;-80
2024/04/27 10:28:18;;;;;;;;;;;17.30;99.90;;;;;;5306351;26;19930;-80
2024/04/27 10:30:43;;;;;;;;;;;17.30;99.90;;;;;;5311027;26;19930;-81
2024/04/27 10:33:12;;;;;;;;;;;17.30;99.90;;;;;;5284707;26;19930;-82
2024/04/27 10:38:59;;;;;;;;;;;17.60;99.90;;;;;;5318124;26;19934;-83
2024/04/27 10:42:07;;;;;;;;;;;17.60;99.90;;;;;;5363948;26;19934;-82
2024/04/27 10:44:46;;;;;;;;;;;17.70;99.90;;;;;;5285184;26;19950;-81
2024/04/27 10:47:14;;;;;;;;;;;18.00;99.90;;;;;;5321165;26;19934;-82
2024/04/27 10:49:40;;;;;;;;;;;18.10;99.90;;;;;;5288705;27;19942;-83
2024/04/27 10:52:08;;;;;;;;;;;18.20;99.90;;;;;;5353386;26;19962;-80
2024/04/27 10:54:36;;;;;;;;;;;18.10;99.90;;;;;;5309057;26;19929;-81
2024/04/27 10:57:02;;;;;;;;;;;18.20;99.90;;;;;;5329982;26;20370;-83
2024/04/27 10:59:28;;;;;;;;;;;18.20;99.90;;;;;;5266501;26;19930;-83
2024/04/27 11:01:53;;;;;;;;;;;18.40;99.90;;;;;;5327086;26;20313;-83
2024/04/27 11:04:19;;;;;;;;;;;18.50;99.90;;;;;;5264689;26;20321;-83
2024/04/27 11:06:44;;;;;;;;;;;18.60;99.90;;;;;;5322643;26;20369;-84
2024/04/27 11:09:11;;;;;;;;;;;18.60;99.90;;;;;;5264627;26;19954;-83
2024/04/27 11:11:37;;;;;;;;;;;18.70;99.90;;;;;;5295494;26;19930;-82
2024/04/27 11:14:03;;;;;;;;;;;18.70;99.50;;;;;;5272015;26;20334;-82
2024/04/27 11:16:32;;;;;;;;;;;18.80;99.90;;;;;;5320713;26;19930;-83
2024/04/27 11:19:00;;;;;;;;;;;18.80;97.80;;;;;;5274444;27;19930;-83
2024/04/27 11:21:27;;;;;;;;;;;18.80;99.10;;;;;;5286314;27;19937;-83
2024/04/27 11:23:52;;;;;;;;;;;18.70;98.10;;;;;;5283546;26;19977;-81
2024/04/27 11:26:18;;;;;;;;;;;18.70;98.70;;;;;;5308292;27;19931;-81
2024/04/27 11:28:46;;;;;;;;;;;18.70;99.30;;;;;;5293955;26;19930;-82
2024/04/27 11:31:14;;;;;;;;;;;18.70;98.40;;;;;;5265900;26;19954;-82
2024/04/27 11:33:40;;;;;;;;;;;18.70;98.00;;;;;;5301968;27;19931;-82
2024/04/27 11:36:06;;;;;;;;;;;18.80;98.50;;;;;;5311439;26;19930;-82
2024/04/27 11:38:31;;;;;;;;;;;18.80;98.10;;;;;;5340643;26;19977;-82
2024/04/27 11:40:57;;;;;;;;;;;18.90;97.80;;;;;;5332331;26;19938;-82
2024/04/27 11:43:23;;;;;;;;;;;19.00;97.50;;;;;;5297810;26;19937;-83
2024/04/27 11:45:48;;;;;;;;;;;19.10;97.20;;;;;;5294336;26;19936;-82
2024/04/27 11:48:14;;;;;;;;;;;19.20;97.00;;;;;;5285994;27;20350;-83
2024/04/27 11:50:41;;;;;;;;;;;19.30;97.60;;;;;;5308256;26;20358;-83
2024/04/27 11:53:07;;;;;;;;;;;19.60;97.70;;;;;;5263257;26;19937;-83
2024/04/27 11:55:32;;;;;;;;;;;19.70;96.40;;;;;;5256588;27;19938;-83
2024/04/27 11:57:58;;;;;;;;;;;19.80;97.50;;;;;;5274625;26;19930;-82
2024/04/27 12:00:25;;;;;;;;;;;19.80;95.60;;;;;;5318398;26;19930;-82
2024/04/27 12:02:50;;;;;;;;;;;19.70;94.60;;;;;;5257920;27;19998;-83
2024/04/27 12:05:16;;;;;;;;;;;19.60;94.50;;;;;;5315661;26;19930;-80
2024/04/27 12:07:42;;;;;;;;;;;19.40;93.50;;;;;;5290179;26;19954;-81
2024/04/27 12:10:08;;;;;;;;;;;19.30;94.10;;;;;;5284688;27;19998;-80
2024/04/27 12:12:33;;;;;;;;;;;19.20;93.40;;;;;;5284264;27;20567;-80
2024/04/27 12:15:00;;;;;;;;;;;19.10;93.00;;;;;;5284911;26;19931;-79
2024/04/27 12:17:27;;;;;;;;;;;19.10;93.20;;;;;;5255834;27;19935;-80
2024/04/27 12:19:53;;;;;;;;;;;18.90;92.50;;;;;;5299088;26;20428;-80
2024/04/27 12:22:19;;;;;;;;;;;18.80;92.50;;;;;;5255600;27;19942;-80
2024/04/27 12:24:47;;;;;;;;;;;18.80;92.20;;;;;;5284401;27;19959;-80
2024/04/27 12:27:15;;;;;;;;;;;18.80;92.60;;;;;;5284153;26;19930;-80
2024/04/27 12:29:44;;;;;;;;;;;18.80;92.90;;;;;;5284454;27;19997;-80
2024/04/27 12:32:12;;;;;;;;;;;18.70;92.90;;;;;;5289224;26;19929;-80
2024/04/27 12:34:38;;;;;;;;;;;18.70;92.70;;;;;;5318920;26;20353;-80
2024/04/27 12:37:05;;;;;;;;;;;18.70;93.00;;;;;;5261497;26;19930;-81
2024/04/27 12:39:30;;;;;;;;;;;18.70;92.80;;;;;;5289390;26;20350;-80
2024/04/27 12:41:56;;;;;;;;;;;18.60;93.30;;;;;;5289547;26;19934;-80
2024/04/27 12:44:24;;;;;;;;;;;18.60;93.00;;;;;;5303350;27;19930;-81
2024/04/27 12:46:52;;;;;;;;;;;18.60;92.80;;;;;;5284021;27;19930;-81
2024/04/27 12:49:18;;;;;;;;;;;18.50;93.20;;;;;;5266688;27;19939;-80
2024/04/27 12:51:43;;;;;;;;;;;18.50;92.60;;;;;;5226517;27;21267;-79
2024/04/27 12:54:12;;;;;;;;;;;18.40;92.80;;;;;;5283103;27;19966;-79
2024/04/27 12:56:38;;;;;;;;;;;18.40;93.10;;;;;;5279125;27;19931;-79
2024/04/27 12:59:04;;;;;;;;;;;18.50;92.90;;;;;;5266871;27;19942;-79
2024/04/27 13:01:30;;;;;;;;;;;18.60;93.20;;;;;;5282877;27;19997;-79
2024/04/27 13:03:57;;;;;;;;;;;18.70;93.60;;;;;;5284644;27;19931;-80
2024/04/27 13:06:24;;;;;;;;;;;18.80;93.10;;;;;;5228500;27;19934;-79
2024/04/27 13:08:49;;;;;;;;;;;18.80;93.20;;;;;;5228225;27;19958;-79
2024/04/27 13:11:15;;;;;;;;;;;18.90;92.90;;;;;;5256184;27;19942;-80
2024/04/27 13:13:41;;;;;;;;;;;18.90;92.80;;;;;;5222755;27;20284;-79
2024/04/27 13:16:07;;;;;;;;;;;18.90;93.00;;;;;;5257201;27;19930;-80
2024/04/27 13:18:32;;;;;;;;;;;19.00;92.90;;;;;;5257267;27;19937;-80
2024/04/27 13:21:00;;;;;;;;;;;19.00;93.10;;;;;;5253929;27;19994;-80
2024/04/27 13:23:27;;;;;;;;;;;19.10;93.30;;;;;;5195721;27;19935;-80
2024/04/27 13:25:53;;;;;;;;;;;19.00;92.90;;;;;;5250292;27;20367;-81
2024/04/27 13:28:19;;;;;;;;;;;19.00;93.00;;;;;;5259827;27;19938;-81
2024/04/27 13:30:46;;;;;;;;;;;18.90;93.20;;;;;;5244838;27;19981;-81
2024/04/27 13:33:11;;;;;;;;;;;18.90;92.80;;;;;;5225785;27;19990;-80
2024/04/27 13:35:37;;;;;;;;;;;18.90;93.20;;;;;;5279090;27;19935;-80
2024/04/27 13:38:04;;;;;;;;;;;18.90;93.60;;;;;;5277727;27;20355;-80
2024/04/27 13:40:30;;;;;;;;;;;18.90;92.50;;;;;;5300971;27;19931;-80
2024/04/27 13:42:55;;;;;;;;;;;19.00;93.00;;;;;;5255956;27;19937;-81
2024/04/27 13:45:23;;;;;;;;;;;19.10;92.90;;;;;;5313235;26;19930;-81
2024/04/27 13:47:50;;;;;;;;;;;19.10;92.80;;;;;;5291623;26;19962;-81
2024/04/27 13:50:15;;;;;;;;;;;19.10;92.30;;;;;;5312706;26;19931;-80
2024/04/27 13:52:41;;;;;;;;;;;19.10;92.40;;;;;;5348571;26;20361;-80
2024/04/27 13:55:08;;;;;;;;;;;19.10;93.00;;;;;;5318046;26;19937;-80
2024/04/27 13:57:33;;;;;;;;;;;19.10;92.30;;;;;;5254817;27;19931;-80
2024/04/27 13:59:59;;;;;;;;;;;19.00;92.60;;;;;;5283037;27;19938;-80
2024/04/27 14:02:27;;;;;;;;;;;19.00;92.70;;;;;;5284543;26;19958;-79
2024/04/27 14:04:53;;;;;;;;;;;19.00;92.70;;;;;;5317343;26;19938;-79
2024/04/27 14:07:18;;;;;;;;;;;19.00;92.60;;;;;;5317722;26;20428;-80
2024/04/27 14:09:45;;;;;;;;;;;19.00;93.50;;;;;;5290178;26;20367;-82
2024/04/27 14:12:11;;;;;;;;;;;19.00;93.20;;;;;;5285157;27;19938;-82
2024/04/27 14:14:36;;;;;;;;;;;19.00;93.30;;;;;;5264330;27;19931;-82
2024/04/27 14:17:02;;;;;;;;;;;19.00;93.10;;;;;;5287110;27;19930;-82
2024/04/27 14:19:27;;;;;;;;;;;18.90;92.90;;;;;;5259174;27;19931;-82
2024/04/27 14:21:53;;;;;;;;;;;18.90;93.50;;;;;;5288272;27;19973;-82
2024/04/27 14:24:19;;;;;;;;;;;19.10;93.30;;;;;;5297752;26;19930;-82
2024/04/27 14:26:46;;;;;;;;;;;19.20;93.80;;;;;;5294276;26;20276;-82
2024/04/27 14:29:13;;;;;;;;;;;19.20;93.50;;;;;;5321740;26;20350;-82
2024/04/27 14:31:39;;;;;;;;;;;19.20;93.60;;;;;;5293825;26;19966;-82
2024/04/27 14:34:06;;;;;;;;;;;19.20;92.90;;;;;;5259321;27;19934;-82
2024/04/27 14:36:34;;;;;;;;;;;19.40;93.40;;;;;;5267329;26;19936;-82
2024/04/27 14:39:01;;;;;;;;;;;19.70;94.20;;;;;;5293343;26;19937;-82
2024/04/27 14:41:27;;;;;;;;;;;20.10;92.70;;;;;;5293794;26;19934;-82
2024/04/27 14:43:54;;;;;;;;;;;20.30;91.90;;;;;;5264716;26;19980;-83
2024/04/27 14:46:19;;;;;;;;;;;20.20;91.90;;;;;;5293594;26;19938;-83
2024/04/27 14:48:46;;;;;;;;;;;20.20;91.80;;;;;;5293222;26;19930;-82
2024/04/27 14:51:12;;;;;;;;;;;20.30;92.30;;;;;;5321745;26;19937;-83
2024/04/27 14:53:38;;;;;;;;;;;20.40;91.90;;;;;;5287258;27;19941;-82
2024/04/27 14:56:03;;;;;;;;;;;20.50;91.10;;;;;;5259718;27;19931;-82
2024/04/27 14:58:29;;;;;;;;;;;20.60;91.60;;;;;;5287097;27;19942;-82
2024/04/27 15:01:02;;;;;;;;;;;20.70;91.30;;;;;;5259487;27;19930;-82
2024/04/27 15:03:28;;;;;;;;;;;20.60;90.70;;;;;;5315583;27;19941;-81
2024/04/27 15:05:54;;;;;;;;;;;20.40;90.60;;;;;;5231391;27;19931;-81
2024/04/27 15:08:19;;;;;;;;;;;20.10;90.80;;;;;;5231172;27;19930;-82
2024/04/27 15:10:46;;;;;;;;;;;19.90;91.00;;;;;;5259027;27;19997;-82